sensor_id;sensor_type;location;lat;lon;timestamp;P1;durP1;ratioP1;P2;durP2;ratioP2
73454;SDS011;61690;51.824;6.306;2023-04-15T00:01:07;7.43;;;2.30;;
73454;SDS011;61690;51.824;6.306;2023-04-15T00:03:33;9.10;;;2.40;;
73454;SDS011;61690;51.824;6.306;2023-04-15T00:05:59;8.63;;;2.67;;
73454;SDS011;61690;51.824;6.306;2023-04-15T00:08:25;8.40;;;2.70;;
73454;SDS011;61690;51.824;6.306;2023-04-15T00:10:51;8.07;;;2.33;;
73454;SDS011;61690;51.824;6.306;2023-04-15T00:13:17;6.85;;;2.13;;
73454;SDS011;61690;51.824;6.306;2023-04-15T00:15:42;7.57;;;2.60;;
73454;SDS011;61690;51.824;6.306;2023-04-15T00:18:07;8.60;;;2.77;;
73454;SDS011;61690;51.824;6.306;2023-04-15T00:20:33;8.40;;;2.60;;
73454;SDS011;61690;51.824;6.306;2023-04-15T00:22:59;8.65;;;2.42;;
73454;SDS011;61690;51.824;6.306;2023-04-15T00:25:24;8.30;;;2.80;;
73454;SDS011;61690;51.824;6.306;2023-04-15T00:27:50;10.35;;;2.72;;
73454;SDS011;61690;51.824;6.306;2023-04-15T00:30:15;8.47;;;2.60;;
73454;SDS011;61690;51.824;6.306;2023-04-15T00:32:41;9.50;;;2.50;;
73454;SDS011;61690;51.824;6.306;2023-04-15T00:35:06;9.63;;;2.70;;
73454;SDS011;61690;51.824;6.306;2023-04-15T00:37:32;9.93;;;2.95;;
73454;SDS011;61690;51.824;6.306;2023-04-15T00:39:59;8.98;;;3.28;;
73454;SDS011;61690;51.824;6.306;2023-04-15T00:42:24;9.07;;;3.13;;
73454;SDS011;61690;51.824;6.306;2023-04-15T00:44:50;10.63;;;3.10;;
73454;SDS011;61690;51.824;6.306;2023-04-15T00:47:16;9.83;;;2.70;;
73454;SDS011;61690;51.824;6.306;2023-04-15T00:49:42;8.63;;;3.05;;
73454;SDS011;61690;51.824;6.306;2023-04-15T00:52:08;9.70;;;3.13;;
73454;SDS011;61690;51.824;6.306;2023-04-15T00:54:33;8.90;;;2.67;;
73454;SDS011;61690;51.824;6.306;2023-04-15T00:56:59;10.07;;;3.00;;
73454;SDS011;61690;51.824;6.306;2023-04-15T00:59:25;11.38;;;3.15;;
73454;SDS011;61690;51.824;6.306;2023-04-15T01:01:51;10.07;;;2.97;;
73454;SDS011;61690;51.824;6.306;2023-04-15T01:04:17;9.05;;;2.70;;
73454;SDS011;61690;51.824;6.306;2023-04-15T01:06:42;9.70;;;3.00;;
73454;SDS011;61690;51.824;6.306;2023-04-15T01:09:07;9.50;;;3.00;;
73454;SDS011;61690;51.824;6.306;2023-04-15T01:11:33;8.65;;;2.95;;
73454;SDS011;61690;51.824;6.306;2023-04-15T01:13:59;8.73;;;2.70;;
73454;SDS011;61690;51.824;6.306;2023-04-15T01:16:25;9.17;;;2.73;;
73454;SDS011;61690;51.824;6.306;2023-04-15T01:18:52;9.52;;;3.25;;
73454;SDS011;61690;51.824;6.306;2023-04-15T01:21:18;9.52;;;3.10;;
73454;SDS011;61690;51.824;6.306;2023-04-15T01:23:44;10.67;;;3.37;;
73454;SDS011;61690;51.824;6.306;2023-04-15T01:26:11;11.85;;;3.42;;
73454;SDS011;61690;51.824;6.306;2023-04-15T01:28:37;10.02;;;3.13;;
73454;SDS011;61690;51.824;6.306;2023-04-15T01:33:32;7.90;;;2.85;;
73454;SDS011;61690;51.824;6.306;2023-04-15T01:35:57;9.43;;;3.10;;
73454;SDS011;61690;51.824;6.306;2023-04-15T01:38:22;10.47;;;3.23;;
73454;SDS011;61690;51.824;6.306;2023-04-15T01:40:49;10.05;;;3.20;;
73454;SDS011;61690;51.824;6.306;2023-04-15T01:43:15;10.07;;;2.87;;
73454;SDS011;61690;51.824;6.306;2023-04-15T01:45:40;10.00;;;3.45;;
73454;SDS011;61690;51.824;6.306;2023-04-15T01:48:06;11.03;;;3.40;;
73454;SDS011;61690;51.824;6.306;2023-04-15T01:50:32;11.63;;;3.50;;
73454;SDS011;61690;51.824;6.306;2023-04-15T01:52:57;9.60;;;2.80;;
73454;SDS011;61690;51.824;6.306;2023-04-15T01:55:22;12.40;;;3.73;;
73454;SDS011;61690;51.824;6.306;2023-04-15T01:57:48;10.25;;;3.10;;
73454;SDS011;61690;51.824;6.306;2023-04-15T02:00:13;9.90;;;3.30;;
73454;SDS011;61690;51.824;6.306;2023-04-15T02:02:39;9.23;;;3.07;;
73454;SDS011;61690;51.824;6.306;2023-04-15T02:05:04;9.83;;;3.43;;
73454;SDS011;61690;51.824;6.306;2023-04-15T02:07:30;10.33;;;3.57;;
73454;SDS011;61690;51.824;6.306;2023-04-15T02:09:56;9.23;;;3.42;;
73454;SDS011;61690;51.824;6.306;2023-04-15T02:12:21;9.07;;;3.13;;
73454;SDS011;61690;51.824;6.306;2023-04-15T02:14:47;10.53;;;3.50;;
73454;SDS011;61690;51.824;6.306;2023-04-15T02:17:13;11.03;;;3.60;;
73454;SDS011;61690;51.824;6.306;2023-04-15T02:19:40;8.95;;;2.90;;
73454;SDS011;61690;51.824;6.306;2023-04-15T02:22:05;10.53;;;3.07;;
73454;SDS011;61690;51.824;6.306;2023-04-15T02:24:33;9.68;;;3.45;;
73454;SDS011;61690;51.824;6.306;2023-04-15T02:26:58;11.10;;;3.20;;
73454;SDS011;61690;51.824;6.306;2023-04-15T02:29:26;9.70;;;3.47;;
73454;SDS011;61690;51.824;6.306;2023-04-15T02:31:51;10.23;;;2.90;;
73454;SDS011;61690;51.824;6.306;2023-04-15T02:34:17;9.17;;;3.10;;
73454;SDS011;61690;51.824;6.306;2023-04-15T02:36:43;10.85;;;3.45;;
73454;SDS011;61690;51.824;6.306;2023-04-15T02:39:09;10.63;;;3.60;;
73454;SDS011;61690;51.824;6.306;2023-04-15T02:41:36;10.07;;;3.00;;
73454;SDS011;61690;51.824;6.306;2023-04-15T02:44:01;9.33;;;2.90;;
73454;SDS011;61690;51.824;6.306;2023-04-15T02:46:27;10.93;;;3.57;;
73454;SDS011;61690;51.824;6.306;2023-04-15T02:48:52;10.93;;;3.07;;
73454;SDS011;61690;51.824;6.306;2023-04-15T02:51:21;10.27;;;3.20;;
73454;SDS011;61690;51.824;6.306;2023-04-15T02:53:47;8.88;;;3.08;;
73454;SDS011;61690;51.824;6.306;2023-04-15T02:56:13;10.30;;;3.20;;
73454;SDS011;61690;51.824;6.306;2023-04-15T02:58:40;9.80;;;3.10;;
73454;SDS011;61690;51.824;6.306;2023-04-15T03:01:06;7.65;;;2.65;;
73454;SDS011;61690;51.824;6.306;2023-04-15T03:03:32;11.73;;;3.30;;
73454;SDS011;61690;51.824;6.306;2023-04-15T03:05:59;9.45;;;3.00;;
73454;SDS011;61690;51.824;6.306;2023-04-15T03:08:25;10.93;;;3.00;;
73454;SDS011;61690;51.824;6.306;2023-04-15T03:10:51;10.33;;;2.87;;
73454;SDS011;61690;51.824;6.306;2023-04-15T03:13:18;9.88;;;2.80;;
73454;SDS011;61690;51.824;6.306;2023-04-15T03:15:45;8.67;;;2.73;;
73454;SDS011;61690;51.824;6.306;2023-04-15T03:18:12;10.35;;;3.28;;
73454;SDS011;61690;51.824;6.306;2023-04-15T03:20:38;9.35;;;2.80;;
73454;SDS011;61690;51.824;6.306;2023-04-15T03:23:03;9.90;;;3.30;;
73454;SDS011;61690;51.824;6.306;2023-04-15T03:25:29;9.18;;;2.72;;
73454;SDS011;61690;51.824;6.306;2023-04-15T03:27:54;8.93;;;3.30;;
73454;SDS011;61690;51.824;6.306;2023-04-15T03:30:20;10.80;;;3.27;;
73454;SDS011;61690;51.824;6.306;2023-04-15T03:32:45;9.97;;;3.43;;
73454;SDS011;61690;51.824;6.306;2023-04-15T03:35:10;9.40;;;3.03;;
73454;SDS011;61690;51.824;6.306;2023-04-15T03:37:36;9.77;;;2.80;;
73454;SDS011;61690;51.824;6.306;2023-04-15T03:40:01;9.20;;;3.03;;
73454;SDS011;61690;51.824;6.306;2023-04-15T03:42:28;10.75;;;2.97;;
73454;SDS011;61690;51.824;6.306;2023-04-15T03:44:54;9.83;;;2.63;;
73454;SDS011;61690;51.824;6.306;2023-04-15T03:47:20;10.53;;;3.10;;
73454;SDS011;61690;51.824;6.306;2023-04-15T03:49:47;7.82;;;2.60;;
73454;SDS011;61690;51.824;6.306;2023-04-15T03:52:12;7.37;;;2.90;;
73454;SDS011;61690;51.824;6.306;2023-04-15T03:54:38;9.15;;;2.90;;
73454;SDS011;61690;51.824;6.306;2023-04-15T03:57:04;10.53;;;3.50;;
73454;SDS011;61690;51.824;6.306;2023-04-15T03:59:30;9.33;;;2.70;;
73454;SDS011;61690;51.824;6.306;2023-04-15T04:01:56;9.75;;;2.83;;
73454;SDS011;61690;51.824;6.306;2023-04-15T04:04:21;8.73;;;2.90;;
73454;SDS011;61690;51.824;6.306;2023-04-15T04:06:46;8.57;;;3.03;;
73454;SDS011;61690;51.824;6.306;2023-04-15T04:09:12;9.40;;;3.13;;
73454;SDS011;61690;51.824;6.306;2023-04-15T04:11:37;9.27;;;3.13;;
73454;SDS011;61690;51.824;6.306;2023-04-15T04:14:03;8.50;;;3.10;;
73454;SDS011;61690;51.824;6.306;2023-04-15T04:16:28;9.60;;;3.20;;
73454;SDS011;61690;51.824;6.306;2023-04-15T04:18:55;8.27;;;3.00;;
73454;SDS011;61690;51.824;6.306;2023-04-15T04:21:21;10.23;;;3.20;;
73454;SDS011;61690;51.824;6.306;2023-04-15T04:23:48;8.55;;;3.10;;
73454;SDS011;61690;51.824;6.306;2023-04-15T04:26:13;8.77;;;3.30;;
73454;SDS011;61690;51.824;6.306;2023-04-15T04:28:39;9.33;;;3.13;;
73454;SDS011;61690;51.824;6.306;2023-04-15T04:31:05;10.10;;;3.37;;
73454;SDS011;61690;51.824;6.306;2023-04-15T04:33:31;9.05;;;3.00;;
73454;SDS011;61690;51.824;6.306;2023-04-15T04:35:56;8.40;;;3.00;;
73454;SDS011;61690;51.824;6.306;2023-04-15T04:38:22;9.40;;;2.97;;
73454;SDS011;61690;51.824;6.306;2023-04-15T04:40:47;9.80;;;3.17;;
73454;SDS011;61690;51.824;6.306;2023-04-15T04:43:13;9.45;;;3.25;;
73454;SDS011;61690;51.824;6.306;2023-04-15T04:45:40;8.40;;;2.73;;
73454;SDS011;61690;51.824;6.306;2023-04-15T04:48:05;8.20;;;3.15;;
73454;SDS011;61690;51.824;6.306;2023-04-15T04:50:32;8.38;;;3.00;;
73454;SDS011;61690;51.824;6.306;2023-04-15T04:52:58;7.90;;;3.15;;
73454;SDS011;61690;51.824;6.306;2023-04-15T04:55:24;9.47;;;3.00;;
73454;SDS011;61690;51.824;6.306;2023-04-15T04:57:49;9.30;;;3.37;;
73454;SDS011;61690;51.824;6.306;2023-04-15T05:00:16;11.85;;;4.28;;
73454;SDS011;61690;51.824;6.306;2023-04-15T05:02:41;8.73;;;2.90;;
73454;SDS011;61690;51.824;6.306;2023-04-15T05:05:08;10.40;;;3.40;;
73454;SDS011;61690;51.824;6.306;2023-04-15T05:07:33;9.20;;;2.80;;
73454;SDS011;61690;51.824;6.306;2023-04-15T05:09:59;10.13;;;3.23;;
73454;SDS011;61690;51.824;6.306;2023-04-15T05:12:25;7.95;;;2.78;;
73454;SDS011;61690;51.824;6.306;2023-04-15T05:14:50;8.57;;;2.93;;
73454;SDS011;61690;51.824;6.306;2023-04-15T05:17:17;8.18;;;3.20;;
73454;SDS011;61690;51.824;6.306;2023-04-15T05:19:43;8.07;;;2.70;;
73454;SDS011;61690;51.824;6.306;2023-04-15T05:22:08;9.20;;;2.80;;
73454;SDS011;61690;51.824;6.306;2023-04-15T05:24:34;8.07;;;2.72;;
73454;SDS011;61690;51.824;6.306;2023-04-15T05:27:00;7.57;;;2.63;;
73454;SDS011;61690;51.824;6.306;2023-04-15T05:29:26;9.70;;;3.05;;
73454;SDS011;61690;51.824;6.306;2023-04-15T05:31:51;8.00;;;2.90;;
73454;SDS011;61690;51.824;6.306;2023-04-15T05:34:16;8.37;;;3.07;;
73454;SDS011;61690;51.824;6.306;2023-04-15T05:36:42;8.43;;;2.90;;
73454;SDS011;61690;51.824;6.306;2023-04-15T05:39:07;8.40;;;3.30;;
73454;SDS011;61690;51.824;6.306;2023-04-15T05:41:33;8.13;;;2.83;;
73454;SDS011;61690;51.824;6.306;2023-04-15T05:43:59;7.55;;;2.70;;
73454;SDS011;61690;51.824;6.306;2023-04-15T05:46:25;8.10;;;2.80;;
73454;SDS011;61690;51.824;6.306;2023-04-15T05:48:51;8.82;;;3.13;;
73454;SDS011;61690;51.824;6.306;2023-04-15T05:51:17;8.63;;;3.00;;
73454;SDS011;61690;51.824;6.306;2023-04-15T05:53:42;7.70;;;2.93;;
73454;SDS011;61690;51.824;6.306;2023-04-15T05:56:07;8.05;;;2.65;;
73454;SDS011;61690;51.824;6.306;2023-04-15T05:58:33;8.23;;;3.07;;
73454;SDS011;61690;51.824;6.306;2023-04-15T06:00:58;7.37;;;2.53;;
73454;SDS011;61690;51.824;6.306;2023-04-15T06:03:30;8.00;;;2.47;;
73454;SDS011;61690;51.824;6.306;2023-04-15T06:05:58;8.10;;;3.08;;
73454;SDS011;61690;51.824;6.306;2023-04-15T06:08:24;8.85;;;2.60;;
73454;SDS011;61690;51.824;6.306;2023-04-15T06:10:51;7.15;;;2.78;;
73454;SDS011;61690;51.824;6.306;2023-04-15T06:13:18;9.23;;;2.97;;
73454;SDS011;61690;51.824;6.306;2023-04-15T06:15:45;7.73;;;2.77;;
73454;SDS011;61690;51.824;6.306;2023-04-15T06:18:10;8.03;;;3.20;;
73454;SDS011;61690;51.824;6.306;2023-04-15T06:20:35;7.78;;;2.70;;
73454;SDS011;61690;51.824;6.306;2023-04-15T06:23:01;8.07;;;2.70;;
73454;SDS011;61690;51.824;6.306;2023-04-15T06:25:27;7.50;;;2.70;;
73454;SDS011;61690;51.824;6.306;2023-04-15T06:27:52;8.20;;;2.90;;
73454;SDS011;61690;51.824;6.306;2023-04-15T06:30:17;7.77;;;2.70;;
73454;SDS011;61690;51.824;6.306;2023-04-15T06:32:44;6.57;;;2.50;;
73454;SDS011;61690;51.824;6.306;2023-04-15T06:35:13;7.88;;;2.53;;
73454;SDS011;61690;51.824;6.306;2023-04-15T06:37:40;7.50;;;2.80;;
73454;SDS011;61690;51.824;6.306;2023-04-15T06:40:05;6.87;;;2.47;;
73454;SDS011;61690;51.824;6.306;2023-04-15T06:42:32;7.88;;;2.65;;
73454;SDS011;61690;51.824;6.306;2023-04-15T06:44:58;8.07;;;2.63;;
73454;SDS011;61690;51.824;6.306;2023-04-15T06:47:23;8.27;;;2.80;;
73454;SDS011;61690;51.824;6.306;2023-04-15T06:49:48;7.33;;;2.70;;
73454;SDS011;61690;51.824;6.306;2023-04-15T06:52:14;7.57;;;2.90;;
73454;SDS011;61690;51.824;6.306;2023-04-15T06:54:40;7.53;;;2.83;;
73454;SDS011;61690;51.824;6.306;2023-04-15T06:57:06;7.73;;;2.57;;
73454;SDS011;61690;51.824;6.306;2023-04-15T06:59:35;7.30;;;2.50;;
73454;SDS011;61690;51.824;6.306;2023-04-15T07:02:00;6.73;;;2.60;;
73454;SDS011;61690;51.824;6.306;2023-04-15T07:04:26;7.50;;;2.58;;
73454;SDS011;61690;51.824;6.306;2023-04-15T07:06:53;7.13;;;2.60;;
73454;SDS011;61690;51.824;6.306;2023-04-15T07:09:22;8.57;;;2.70;;
73454;SDS011;61690;51.824;6.306;2023-04-15T07:11:48;7.65;;;2.33;;
73454;SDS011;61690;51.824;6.306;2023-04-15T07:14:14;7.87;;;2.53;;
73454;SDS011;61690;51.824;6.306;2023-04-15T07:16:40;7.60;;;2.80;;
73454;SDS011;61690;51.824;6.306;2023-04-15T07:19:06;7.15;;;2.88;;
73454;SDS011;61690;51.824;6.306;2023-04-15T07:21:31;7.17;;;2.70;;
73454;SDS011;61690;51.824;6.306;2023-04-15T07:23:56;8.27;;;2.43;;
73454;SDS011;61690;51.824;6.306;2023-04-15T07:26:22;6.85;;;2.58;;
73454;SDS011;61690;51.824;6.306;2023-04-15T07:28:48;7.45;;;2.40;;
73454;SDS011;61690;51.824;6.306;2023-04-15T07:31:14;7.80;;;2.50;;
73454;SDS011;61690;51.824;6.306;2023-04-15T07:33:40;8.13;;;2.70;;
73454;SDS011;61690;51.824;6.306;2023-04-15T07:36:07;7.83;;;2.60;;
73454;SDS011;61690;51.824;6.306;2023-04-15T07:38:33;6.90;;;2.50;;
73454;SDS011;61690;51.824;6.306;2023-04-15T07:40:58;8.10;;;2.40;;
73454;SDS011;61690;51.824;6.306;2023-04-15T07:43:23;7.37;;;2.57;;
73454;SDS011;61690;51.824;6.306;2023-04-15T07:45:49;6.60;;;2.43;;
73454;SDS011;61690;51.824;6.306;2023-04-15T07:48:20;7.33;;;2.23;;
73454;SDS011;61690;51.824;6.306;2023-04-15T07:50:46;6.55;;;2.35;;
73454;SDS011;61690;51.824;6.306;2023-04-15T07:53:11;8.57;;;2.80;;
73454;SDS011;61690;51.824;6.306;2023-04-15T07:55:37;6.47;;;2.30;;
73454;SDS011;61690;51.824;6.306;2023-04-15T07:58:02;7.10;;;2.17;;
73454;SDS011;61690;51.824;6.306;2023-04-15T08:00:28;7.03;;;2.13;;
73454;SDS011;61690;51.824;6.306;2023-04-15T08:02:55;7.75;;;2.55;;
73454;SDS011;61690;51.824;6.306;2023-04-15T08:05:21;9.45;;;2.67;;
73454;SDS011;61690;51.824;6.306;2023-04-15T08:07:46;9.83;;;4.03;;
73454;SDS011;61690;51.824;6.306;2023-04-15T08:10:12;8.53;;;2.53;;
73454;SDS011;61690;51.824;6.306;2023-04-15T08:12:38;9.10;;;2.23;;
73454;SDS011;61690;51.824;6.306;2023-04-15T08:15:17;6.97;;;2.40;;
73454;SDS011;61690;51.824;6.306;2023-04-15T08:17:46;9.23;;;2.50;;
73454;SDS011;61690;51.824;6.306;2023-04-15T08:20:11;8.13;;;2.30;;
73454;SDS011;61690;51.824;6.306;2023-04-15T08:22:37;9.33;;;2.73;;
73454;SDS011;61690;51.824;6.306;2023-04-15T08:25:03;11.65;;;2.47;;
73454;SDS011;61690;51.824;6.306;2023-04-15T08:27:31;9.63;;;2.40;;
73454;SDS011;61690;51.824;6.306;2023-04-15T08:29:56;10.93;;;2.83;;
73454;SDS011;61690;51.824;6.306;2023-04-15T08:32:22;8.67;;;2.20;;
73454;SDS011;61690;51.824;6.306;2023-04-15T08:34:50;8.30;;;2.75;;
73454;SDS011;61690;51.824;6.306;2023-04-15T08:37:15;7.70;;;2.47;;
73454;SDS011;61690;51.824;6.306;2023-04-15T08:39:40;7.30;;;2.53;;
73454;SDS011;61690;51.824;6.306;2023-04-15T08:42:15;8.43;;;2.00;;
73454;SDS011;61690;51.824;6.306;2023-04-15T08:44:46;5.70;;;2.20;;
73454;SDS011;61690;51.824;6.306;2023-04-15T08:47:12;8.63;;;2.13;;
73454;SDS011;61690;51.824;6.306;2023-04-15T08:49:41;6.57;;;2.70;;
73454;SDS011;61690;51.824;6.306;2023-04-15T08:52:07;7.93;;;2.13;;
73454;SDS011;61690;51.824;6.306;2023-04-15T08:54:46;7.00;;;2.78;;
73454;SDS011;61690;51.824;6.306;2023-04-15T08:57:12;6.50;;;2.03;;
73454;SDS011;61690;51.824;6.306;2023-04-15T08:59:39;7.20;;;2.00;;
73454;SDS011;61690;51.824;6.306;2023-04-15T09:02:07;5.95;;;2.13;;
73454;SDS011;61690;51.824;6.306;2023-04-15T09:04:33;8.23;;;2.10;;
73454;SDS011;61690;51.824;6.306;2023-04-15T09:07:04;7.45;;;1.90;;
73454;SDS011;61690;51.824;6.306;2023-04-15T09:09:30;6.63;;;2.10;;
73454;SDS011;61690;51.824;6.306;2023-04-15T09:11:55;5.95;;;1.70;;
73454;SDS011;61690;51.824;6.306;2023-04-15T09:14:21;6.80;;;1.90;;
73454;SDS011;61690;51.824;6.306;2023-04-15T09:16:57;6.78;;;1.90;;
73454;SDS011;61690;51.824;6.306;2023-04-15T09:19:24;10.83;;;1.93;;
73454;SDS011;61690;51.824;6.306;2023-04-15T09:21:57;6.35;;;2.10;;
73454;SDS011;61690;51.824;6.306;2023-04-15T09:24:23;6.10;;;1.55;;
73454;SDS011;61690;51.824;6.306;2023-04-15T09:26:51;8.40;;;1.98;;
73454;SDS011;61690;51.824;6.306;2023-04-15T09:29:23;6.63;;;1.90;;
73454;SDS011;61690;51.824;6.306;2023-04-15T09:32:10;8.40;;;1.80;;
73454;SDS011;61690;51.824;6.306;2023-04-15T09:34:39;7.78;;;1.85;;
73454;SDS011;61690;51.824;6.306;2023-04-15T09:37:06;6.37;;;1.70;;
73454;SDS011;61690;51.824;6.306;2023-04-15T09:39:50;6.25;;;1.52;;
73454;SDS011;61690;51.824;6.306;2023-04-15T09:42:16;5.80;;;1.98;;
73454;SDS011;61690;51.824;6.306;2023-04-15T09:44:48;4.72;;;1.45;;
73454;SDS011;61690;51.824;6.306;2023-04-15T09:47:28;5.57;;;1.60;;
73454;SDS011;61690;51.824;6.306;2023-04-15T09:49:58;6.17;;;1.77;;
73454;SDS011;61690;51.824;6.306;2023-04-15T09:52:24;4.78;;;1.30;;
73454;SDS011;61690;51.824;6.306;2023-04-15T09:54:51;6.00;;;1.53;;
73454;SDS011;61690;51.824;6.306;2023-04-15T09:57:20;5.90;;;1.50;;
73454;SDS011;61690;51.824;6.306;2023-04-15T09:59:46;4.20;;;1.40;;
73454;SDS011;61690;51.824;6.306;2023-04-15T10:02:19;5.78;;;1.40;;
73454;SDS011;61690;51.824;6.306;2023-04-15T10:04:45;5.10;;;1.70;;
73454;SDS011;61690;51.824;6.306;2023-04-15T10:07:13;6.35;;;1.60;;
73454;SDS011;61690;51.824;6.306;2023-04-15T10:09:39;5.15;;;1.50;;
73454;SDS011;61690;51.824;6.306;2023-04-15T10:12:05;5.33;;;1.50;;
73454;SDS011;61690;51.824;6.306;2023-04-15T10:15:05;6.47;;;1.58;;
73454;SDS011;61690;51.824;6.306;2023-04-15T10:17:26;5.57;;;1.60;;
73454;SDS011;61690;51.824;6.306;2023-04-15T10:19:54;4.40;;;1.60;;
73454;SDS011;61690;51.824;6.306;2023-04-15T10:22:22;5.50;;;1.55;;
73454;SDS011;61690;51.824;6.306;2023-04-15T10:24:57;4.17;;;1.33;;
73454;SDS011;61690;51.824;6.306;2023-04-15T10:27:24;5.75;;;1.60;;
73454;SDS011;61690;51.824;6.306;2023-04-15T10:29:51;5.15;;;1.63;;
73454;SDS011;61690;51.824;6.306;2023-04-15T10:32:18;6.07;;;1.63;;
73454;SDS011;61690;51.824;6.306;2023-04-15T10:34:48;6.85;;;1.63;;
73454;SDS011;61690;51.824;6.306;2023-04-15T10:37:21;6.10;;;1.60;;
73454;SDS011;61690;51.824;6.306;2023-04-15T10:39:57;5.35;;;1.60;;
73454;SDS011;61690;51.824;6.306;2023-04-15T10:42:22;5.10;;;1.50;;
73454;SDS011;61690;51.824;6.306;2023-04-15T10:44:50;4.50;;;1.47;;
73454;SDS011;61690;51.824;6.306;2023-04-15T10:47:20;7.23;;;1.50;;
73454;SDS011;61690;51.824;6.306;2023-04-15T10:49:49;4.45;;;1.60;;
73454;SDS011;61690;51.824;6.306;2023-04-15T10:52:20;9.30;;;1.58;;
73454;SDS011;61690;51.824;6.306;2023-04-15T10:54:48;5.50;;;1.30;;
73454;SDS011;61690;51.824;6.306;2023-04-15T10:57:15;8.40;;;1.48;;
73454;SDS011;61690;51.824;6.306;2023-04-15T11:08:06;7.88;;;1.33;;
73454;SDS011;61690;51.824;6.306;2023-04-15T11:12:58;7.47;;;1.40;;
73454;SDS011;61690;51.824;6.306;2023-04-15T11:15:37;5.60;;;1.42;;
73454;SDS011;61690;51.824;6.306;2023-04-15T11:18:17;4.63;;;1.40;;
73454;SDS011;61690;51.824;6.306;2023-04-15T11:20:48;7.65;;;1.80;;
73454;SDS011;61690;51.824;6.306;2023-04-15T11:23:18;5.78;;;1.60;;
73454;SDS011;61690;51.824;6.306;2023-04-15T11:25:55;7.68;;;1.50;;
73454;SDS011;61690;51.824;6.306;2023-04-15T11:28:24;5.38;;;1.40;;
73454;SDS011;61690;51.824;6.306;2023-04-15T11:30:50;6.00;;;1.60;;
73454;SDS011;61690;51.824;6.306;2023-04-15T11:33:16;5.70;;;1.27;;
73454;SDS011;61690;51.824;6.306;2023-04-15T11:35:41;5.40;;;1.40;;
73454;SDS011;61690;51.824;6.306;2023-04-15T11:38:12;6.63;;;1.40;;
73454;SDS011;61690;51.824;6.306;2023-04-15T11:40:38;6.63;;;1.25;;
73454;SDS011;61690;51.824;6.306;2023-04-15T11:45:36;4.55;;;0.93;;
73454;SDS011;61690;51.824;6.306;2023-04-15T11:48:11;4.77;;;1.10;;
73454;SDS011;61690;51.824;6.306;2023-04-15T11:50:39;7.07;;;1.08;;
73454;SDS011;61690;51.824;6.306;2023-04-15T11:53:05;5.90;;;1.52;;
73454;SDS011;61690;51.824;6.306;2023-04-15T11:55:45;7.70;;;1.20;;
73454;SDS011;61690;51.824;6.306;2023-04-15T11:58:15;9.20;;;1.20;;
73454;SDS011;61690;51.824;6.306;2023-04-15T12:00:47;4.40;;;1.03;;
73454;SDS011;61690;51.824;6.306;2023-04-15T12:03:19;5.65;;;1.20;;
73454;SDS011;61690;51.824;6.306;2023-04-15T12:08:54;5.78;;;1.30;;
73454;SDS011;61690;51.824;6.306;2023-04-15T12:14:24;4.73;;;1.10;;
73454;SDS011;61690;51.824;6.306;2023-04-15T12:16:54;5.28;;;1.38;;
73454;SDS011;61690;51.824;6.306;2023-04-15T12:19:28;4.10;;;1.30;;
73454;SDS011;61690;51.824;6.306;2023-04-15T12:22:02;5.43;;;1.20;;
73454;SDS011;61690;51.824;6.306;2023-04-15T12:24:31;4.10;;;1.20;;
73454;SDS011;61690;51.824;6.306;2023-04-15T12:27:02;4.80;;;1.13;;
73454;SDS011;61690;51.824;6.306;2023-04-15T12:29:29;4.78;;;1.23;;
73454;SDS011;61690;51.824;6.306;2023-04-15T12:32:03;5.05;;;1.30;;
73454;SDS011;61690;51.824;6.306;2023-04-15T12:37:06;4.32;;;1.10;;
73454;SDS011;61690;51.824;6.306;2023-04-15T12:39:35;4.70;;;1.40;;
73454;SDS011;61690;51.824;6.306;2023-04-15T12:42:06;4.45;;;1.33;;
73454;SDS011;61690;51.824;6.306;2023-04-15T12:44:32;6.85;;;1.27;;
73454;SDS011;61690;51.824;6.306;2023-04-15T12:47:00;5.60;;;1.40;;
73454;SDS011;61690;51.824;6.306;2023-04-15T12:49:26;6.57;;;1.30;;
73454;SDS011;61690;51.824;6.306;2023-04-15T12:51:52;4.17;;;1.40;;
73454;SDS011;61690;51.824;6.306;2023-04-15T12:54:19;3.80;;;1.23;;
73454;SDS011;61690;51.824;6.306;2023-04-15T12:56:45;3.90;;;1.10;;
73454;SDS011;61690;51.824;6.306;2023-04-15T12:59:12;5.47;;;1.20;;
73454;SDS011;61690;51.824;6.306;2023-04-15T13:01:38;5.03;;;1.30;;
73454;SDS011;61690;51.824;6.306;2023-04-15T13:04:04;5.13;;;1.25;;
73454;SDS011;61690;51.824;6.306;2023-04-15T13:06:30;5.20;;;1.07;;
73454;SDS011;61690;51.824;6.306;2023-04-15T13:08:57;4.60;;;1.27;;
73454;SDS011;61690;51.824;6.306;2023-04-15T13:11:25;6.10;;;1.30;;
73454;SDS011;61690;51.824;6.306;2023-04-15T13:13:53;4.75;;;1.30;;
73454;SDS011;61690;51.824;6.306;2023-04-15T13:16:18;6.67;;;1.10;;
73454;SDS011;61690;51.824;6.306;2023-04-15T13:18:44;5.93;;;1.23;;
73454;SDS011;61690;51.824;6.306;2023-04-15T13:21:16;4.57;;;1.10;;
73454;SDS011;61690;51.824;6.306;2023-04-15T13:23:43;4.57;;;1.30;;
73454;SDS011;61690;51.824;6.306;2023-04-15T13:26:08;5.15;;;1.20;;
73454;SDS011;61690;51.824;6.306;2023-04-15T13:28:37;4.47;;;1.10;;
73454;SDS011;61690;51.824;6.306;2023-04-15T13:31:03;3.57;;;1.17;;
73454;SDS011;61690;51.824;6.306;2023-04-15T13:33:29;4.57;;;1.25;;
73454;SDS011;61690;51.824;6.306;2023-04-15T13:35:55;5.43;;;1.30;;
73454;SDS011;61690;51.824;6.306;2023-04-15T13:38:23;4.13;;;1.40;;
73454;SDS011;61690;51.824;6.306;2023-04-15T13:40:49;5.38;;;1.30;;
73454;SDS011;61690;51.824;6.306;2023-04-15T13:43:21;3.83;;;1.10;;
73454;SDS011;61690;51.824;6.306;2023-04-15T13:45:50;4.38;;;1.20;;
73454;SDS011;61690;51.824;6.306;2023-04-15T13:48:16;4.18;;;1.20;;
73454;SDS011;61690;51.824;6.306;2023-04-15T13:50:41;6.10;;;1.40;;
73454;SDS011;61690;51.824;6.306;2023-04-15T13:53:10;4.65;;;1.30;;
73454;SDS011;61690;51.824;6.306;2023-04-15T13:55:41;3.60;;;1.10;;
73454;SDS011;61690;51.824;6.306;2023-04-15T13:58:13;4.00;;;1.13;;
73454;SDS011;61690;51.824;6.306;2023-04-15T14:00:38;4.57;;;1.10;;
73454;SDS011;61690;51.824;6.306;2023-04-15T14:03:03;4.50;;;1.10;;
73454;SDS011;61690;51.824;6.306;2023-04-15T14:05:31;4.07;;;1.30;;
73454;SDS011;61690;51.824;6.306;2023-04-15T14:07:59;4.07;;;1.17;;
73454;SDS011;61690;51.824;6.306;2023-04-15T14:10:26;4.60;;;1.20;;
73454;SDS011;61690;51.824;6.306;2023-04-15T14:12:53;3.80;;;1.30;;
73454;SDS011;61690;51.824;6.306;2023-04-15T14:15:19;3.80;;;1.20;;
73454;SDS011;61690;51.824;6.306;2023-04-15T14:17:47;3.58;;;1.20;;
73454;SDS011;61690;51.824;6.306;2023-04-15T14:20:18;4.55;;;1.40;;
73454;SDS011;61690;51.824;6.306;2023-04-15T14:22:43;5.25;;;1.40;;
73454;SDS011;61690;51.824;6.306;2023-04-15T14:25:10;5.57;;;1.47;;
73454;SDS011;61690;51.824;6.306;2023-04-15T14:27:35;4.45;;;1.23;;
73454;SDS011;61690;51.824;6.306;2023-04-15T14:30:02;4.00;;;1.30;;
73454;SDS011;61690;51.824;6.306;2023-04-15T14:32:28;4.70;;;1.45;;
73454;SDS011;61690;51.824;6.306;2023-04-15T14:34:56;8.37;;;1.30;;
73454;SDS011;61690;51.824;6.306;2023-04-15T14:37:21;4.93;;;1.50;;
73454;SDS011;61690;51.824;6.306;2023-04-15T14:39:47;4.17;;;1.23;;
73454;SDS011;61690;51.824;6.306;2023-04-15T14:42:12;4.33;;;1.30;;
73454;SDS011;61690;51.824;6.306;2023-04-15T14:44:40;4.60;;;1.20;;
73454;SDS011;61690;51.824;6.306;2023-04-15T14:47:08;6.63;;;1.20;;
73454;SDS011;61690;51.824;6.306;2023-04-15T14:49:36;6.07;;;1.48;;
73454;SDS011;61690;51.824;6.306;2023-04-15T14:52:05;5.43;;;1.40;;
73454;SDS011;61690;51.824;6.306;2023-04-15T14:54:30;4.57;;;1.40;;
73454;SDS011;61690;51.824;6.306;2023-04-15T14:56:57;5.00;;;1.25;;
73454;SDS011;61690;51.824;6.306;2023-04-15T14:59:22;5.30;;;1.50;;
73454;SDS011;61690;51.824;6.306;2023-04-15T15:01:47;4.93;;;1.47;;
73454;SDS011;61690;51.824;6.306;2023-04-15T15:04:14;4.25;;;1.10;;
73454;SDS011;61690;51.824;6.306;2023-04-15T15:06:40;5.47;;;1.30;;
73454;SDS011;61690;51.824;6.306;2023-04-15T15:09:06;4.57;;;1.10;;